createdAt,value
2022-10-17T00:00:35.585Z,8.85
2022-10-17T00:03:12.896Z,9.10
2022-10-17T00:05:42.150Z,9.63
2022-10-17T00:08:10.061Z,9.00
2022-10-17T00:10:37.338Z,9.23
2022-10-17T00:13:04.197Z,9.30
2022-10-17T00:15:30.887Z,8.63
2022-10-17T00:17:57.551Z,9.20
2022-10-17T00:20:24.861Z,9.07
2022-10-17T00:22:51.791Z,8.65
2022-10-17T00:25:19.241Z,8.32
2022-10-17T00:27:45.878Z,8.23
2022-10-17T00:30:14.404Z,7.75
2022-10-17T00:32:41.374Z,8.32
2022-10-17T00:35:09.331Z,7.60
2022-10-17T00:37:36.167Z,7.97
2022-10-17T00:40:04.299Z,7.88
2022-10-17T00:42:31.245Z,8.40
2022-10-17T00:45:03.688Z,8.55
2022-10-17T00:47:31.209Z,7.60
2022-10-17T00:49:59.238Z,8.07
2022-10-17T00:52:29.152Z,7.90
2022-10-17T00:55:12.675Z,7.47
2022-10-17T00:57:40.072Z,7.82
2022-10-17T01:00:10.082Z,7.70
2022-10-17T01:02:37.221Z,7.38
2022-10-17T01:05:05.234Z,7.22
2022-10-17T01:07:34.913Z,7.93
2022-10-17T01:10:07.322Z,7.72
2022-10-17T01:12:51.364Z,7.57
2022-10-17T01:15:46.055Z,7.10
2022-10-17T01:18:30.793Z,6.78
2022-10-17T01:21:29.869Z,6.45
2022-10-17T01:24:29.691Z,7.05
2022-10-17T01:27:09.744Z,6.85
2022-10-17T01:30:13.461Z,7.15
2022-10-17T01:32:47.668Z,7.05
2022-10-17T01:35:14.198Z,7.28
2022-10-17T01:38:10.462Z,6.68
2022-10-17T01:40:50.966Z,7.30
2022-10-17T01:43:26.046Z,6.93
2022-10-17T01:46:00.687Z,7.93
2022-10-17T01:48:35.141Z,7.50
2022-10-17T01:51:36.074Z,7.30
2022-10-17T01:54:09.760Z,6.95
2022-10-17T01:56:38.846Z,7.57
2022-10-17T01:59:13.943Z,6.88
2022-10-17T02:01:42.641Z,7.53
2022-10-17T02:04:11.382Z,7.05
2022-10-17T02:06:38.387Z,7.45
2022-10-17T02:09:23.061Z,6.93
2022-10-17T02:12:24.900Z,6.82
2022-10-17T02:15:35.018Z,6.80
2022-10-17T02:18:16.751Z,7.47
2022-10-17T02:20:52.273Z,7.25
2022-10-17T02:23:36.280Z,7.55
2022-10-17T02:26:16.336Z,6.57
2022-10-17T02:28:53.326Z,6.72
2022-10-17T02:31:29.189Z,6.45
2022-10-17T02:36:34.752Z,6.43
2022-10-17T02:39:04.174Z,6.80
2022-10-17T02:41:32.972Z,6.88
2022-10-17T02:44:02.592Z,6.60
2022-10-17T02:46:31.026Z,8.63
2022-10-17T02:49:11.646Z,6.28
2022-10-17T02:52:14.191Z,7.45
2022-10-17T02:54:46.779Z,8.82
2022-10-17T02:57:24.601Z,8.13
2022-10-17T02:59:52.201Z,7.63
2022-10-17T03:02:19.042Z,7.80
2022-10-17T03:04:46.778Z,7.65
2022-10-17T03:07:13.876Z,7.50
2022-10-17T03:09:40.520Z,7.95
2022-10-17T03:12:07.180Z,7.60
2022-10-17T03:14:33.803Z,7.50
2022-10-17T03:17:00.598Z,7.07
2022-10-17T03:19:27.260Z,7.32
2022-10-17T03:21:54.498Z,7.45
2022-10-17T03:24:21.082Z,7.03
2022-10-17T03:26:47.736Z,6.55
2022-10-17T03:29:14.743Z,7.90
2022-10-17T03:31:41.481Z,7.75
2022-10-17T03:34:08.226Z,8.00
2022-10-17T03:36:34.845Z,7.03
2022-10-17T03:39:01.429Z,6.97
2022-10-17T03:41:28.075Z,7.88
2022-10-17T03:43:54.863Z,7.57
2022-10-17T03:46:21.477Z,8.30
2022-10-17T03:48:48.133Z,7.93
2022-10-17T03:51:15.477Z,7.35
2022-10-17T03:53:42.078Z,7.43
2022-10-17T03:56:10.728Z,7.28
2022-10-17T03:58:37.374Z,7.10
2022-10-17T04:01:09.139Z,6.78
2022-10-17T04:03:35.844Z,7.03
2022-10-17T04:06:04.071Z,7.25
2022-10-17T04:08:31.122Z,7.78
2022-10-17T04:11:01.560Z,10.10
2022-10-17T04:13:28.796Z,8.85
2022-10-17T04:16:03.902Z,8.07
2022-10-17T04:18:30.683Z,8.07
2022-10-17T04:20:57.624Z,7.47
2022-10-17T04:23:26.816Z,7.40
2022-10-17T04:25:57.426Z,8.15
2022-10-17T04:28:25.083Z,7.55
2022-10-17T04:31:03.303Z,7.28
2022-10-17T04:33:31.922Z,8.07
2022-10-17T04:36:03.865Z,7.47
2022-10-17T04:38:30.835Z,7.18
2022-10-17T04:40:58.627Z,8.18
2022-10-17T04:43:25.410Z,7.85
2022-10-17T04:45:52.121Z,8.00
2022-10-17T04:48:18.756Z,7.28
2022-10-17T04:50:56.357Z,7.20
2022-10-17T04:53:24.016Z,7.35
2022-10-17T04:55:51.328Z,7.88
2022-10-17T04:58:18.248Z,7.03
2022-10-17T05:00:45.641Z,8.10
2022-10-17T05:03:12.501Z,8.00
2022-10-17T05:05:40.589Z,7.30
2022-10-17T05:08:08.985Z,8.05
2022-10-17T05:10:40.079Z,7.78
2022-10-17T05:13:07.394Z,7.57
2022-10-17T05:15:34.740Z,8.43
2022-10-17T05:18:01.751Z,8.20
2022-10-17T05:20:28.600Z,8.15
2022-10-17T05:22:55.628Z,8.23
2022-10-17T05:25:22.361Z,7.57
2022-10-17T05:27:49.408Z,8.07
2022-10-17T05:30:16.070Z,7.45
2022-10-17T05:32:42.766Z,8.30
2022-10-17T05:35:09.537Z,8.35
2022-10-17T05:37:36.264Z,8.27
2022-10-17T05:40:09.428Z,8.10
2022-10-17T05:42:42.712Z,7.45
2022-10-17T05:45:09.786Z,7.30
2022-10-17T05:47:38.040Z,7.25
2022-10-17T05:50:05.580Z,7.03
2022-10-17T05:52:32.579Z,7.90
2022-10-17T05:54:59.489Z,8.80
2022-10-17T05:57:27.198Z,7.95
2022-10-17T05:59:53.792Z,7.70
2022-10-17T06:02:22.031Z,8.07
2022-10-17T06:04:50.155Z,7.68
2022-10-17T06:07:17.032Z,7.53
2022-10-17T06:12:25.566Z,8.20
2022-10-17T06:15:42.391Z,7.63
2022-10-17T06:18:09.344Z,7.10
2022-10-17T06:20:36.013Z,8.30
2022-10-17T06:23:03.047Z,7.57
2022-10-17T06:25:33.167Z,7.78
2022-10-17T06:28:00.237Z,8.77
2022-10-17T06:30:27.489Z,7.72
2022-10-17T06:32:59.446Z,8.07
2022-10-17T06:35:26.272Z,7.85
2022-10-17T06:37:53.316Z,7.80
2022-10-17T06:40:20.154Z,8.43
2022-10-17T06:42:53.345Z,8.48
2022-10-17T06:45:47.636Z,8.10
2022-10-17T06:48:15.103Z,8.10
2022-10-17T06:50:41.779Z,8.27
2022-10-17T06:53:08.431Z,7.75
2022-10-17T06:55:54.186Z,7.97
2022-10-17T06:58:21.425Z,8.00
2022-10-17T07:00:48.141Z,8.27
2022-10-17T07:03:14.852Z,8.38
2022-10-17T07:05:41.487Z,8.38
2022-10-17T07:08:25.985Z,8.10
2022-10-17T07:10:54.122Z,7.55
2022-10-17T07:16:45.638Z,8.35
2022-10-17T07:19:12.392Z,7.40
2022-10-17T07:21:39.459Z,7.38
2022-10-17T07:24:07.645Z,8.70
2022-10-17T07:26:34.254Z,7.15
2022-10-17T07:29:01.893Z,7.63
2022-10-17T07:31:28.776Z,7.25
2022-10-17T07:33:55.509Z,8.07
2022-10-17T07:36:23.897Z,7.88
2022-10-17T07:38:50.608Z,7.53
2022-10-17T07:41:20.812Z,7.28
2022-10-17T07:43:48.598Z,7.90
2022-10-17T07:46:15.795Z,7.70
2022-10-17T07:48:42.474Z,7.60
2022-10-17T07:51:10.557Z,8.00
2022-10-17T07:53:38.690Z,7.40
2022-10-17T07:56:09.370Z,7.32
2022-10-17T07:58:37.122Z,7.00
2022-10-17T08:01:15.699Z,7.15
2022-10-17T08:03:44.642Z,7.90
2022-10-17T08:06:11.643Z,7.03
2022-10-17T08:08:38.717Z,7.05
2022-10-17T08:13:57.295Z,7.15
2022-10-17T08:16:34.888Z,6.97
2022-10-17T08:24:39.578Z,6.93
2022-10-17T08:27:15.512Z,6.38
2022-10-17T08:30:29.852Z,6.57
2022-10-17T08:32:30.854Z,6.85
2022-10-17T08:35:01.984Z,6.53
2022-10-17T08:37:37.099Z,6.50
2022-10-17T08:40:12.680Z,7.05
2022-10-17T08:43:14.714Z,6.97
2022-10-17T08:45:59.559Z,6.47
2022-10-17T08:49:12.116Z,5.93
2022-10-17T08:51:44.792Z,6.43
2022-10-17T08:54:43.022Z,6.25
2022-10-17T08:57:28.513Z,6.90
2022-10-17T09:00:32.736Z,6.05
2022-10-17T09:03:27.175Z,6.10
2022-10-17T09:06:22.477Z,6.93
2022-10-17T09:09:12.531Z,6.47
2022-10-17T09:11:51.008Z,5.57
2022-10-17T09:14:42.805Z,5.55
2022-10-17T09:17:35.202Z,5.15
2022-10-17T09:20:38.394Z,5.45
2022-10-17T09:23:18.073Z,5.05
2022-10-17T09:25:48.323Z,5.18
2022-10-17T09:31:23.104Z,5.72
2022-10-17T09:33:54.681Z,5.07
2022-10-17T09:36:29.719Z,5.00
2022-10-17T09:39:01.906Z,4.78
2022-10-17T09:41:45.885Z,4.72
2022-10-17T09:44:19.643Z,4.55
2022-10-17T09:46:52.450Z,4.35
2022-10-17T09:49:35.826Z,4.05
2022-10-17T09:52:12.553Z,4.35
2022-10-17T09:55:02.694Z,4.28
2022-10-17T09:57:29.739Z,4.32
2022-10-17T10:02:41.792Z,4.28
2022-10-17T10:05:25.351Z,3.95
2022-10-17T10:08:12.846Z,4.10
2022-10-17T10:10:53.642Z,3.42
2022-10-17T10:13:30.429Z,4.30
2022-10-17T10:16:14.683Z,4.30
2022-10-17T10:18:41.664Z,3.70
2022-10-17T10:21:23.550Z,3.80
2022-10-17T10:24:30.865Z,4.35
2022-10-17T10:27:15.283Z,4.10
2022-10-17T10:29:55.262Z,3.55
2022-10-17T10:32:25.209Z,3.10
2022-10-17T10:35:21.528Z,3.42
2022-10-17T10:37:58.879Z,4.25
2022-10-17T10:40:49.050Z,4.25
2022-10-17T10:43:45.707Z,3.70
2022-10-17T10:46:30.626Z,3.55
2022-10-17T10:49:03.456Z,3.80
2022-10-17T10:51:42.585Z,4.75
2022-10-17T10:54:16.714Z,4.97
2022-10-17T10:56:51.271Z,5.22
2022-10-17T10:59:34.658Z,5.07
2022-10-17T11:02:18.724Z,4.90
2022-10-17T11:04:53.104Z,5.25
2022-10-17T11:07:37.043Z,4.10
2022-10-17T11:10:20.686Z,5.70
2022-10-17T11:13:11.206Z,4.93
2022-10-17T11:15:51.426Z,4.85
2022-10-17T11:18:57.194Z,4.85
2022-10-17T11:22:03.869Z,4.90
2022-10-17T11:25:00.435Z,4.63
2022-10-17T11:27:31.872Z,4.65
2022-10-17T11:29:59.157Z,4.68
2022-10-17T11:33:04.262Z,4.88
2022-10-17T11:36:09.523Z,5.30
2022-10-17T11:38:46.391Z,5.30
2022-10-17T11:41:55.502Z,4.50
2022-10-17T11:44:29.901Z,4.40
2022-10-17T11:47:35.797Z,5.15
2022-10-17T11:53:16.830Z,5.45
2022-10-17T11:55:45.462Z,5.55
2022-10-17T12:01:18.109Z,5.07
2022-10-17T12:04:02.991Z,5.03
2022-10-17T12:06:41.568Z,5.15
2022-10-17T12:09:18.414Z,5.18
2022-10-17T12:11:53.919Z,5.28
2022-10-17T12:14:43.588Z,6.05
2022-10-17T12:17:30.711Z,5.32
2022-10-17T12:20:21.728Z,5.63
2022-10-17T12:22:50.167Z,5.68
2022-10-17T12:25:23.955Z,5.80
2022-10-17T12:28:11.388Z,5.95
2022-10-17T12:30:50.763Z,5.55
2022-10-17T12:33:26.830Z,6.05
2022-10-17T12:36:28.072Z,6.05
2022-10-17T12:39:04.140Z,6.07
2022-10-17T12:41:39.755Z,5.50
2022-10-17T12:44:21.709Z,5.60
2022-10-17T12:46:49.583Z,4.88
2022-10-17T12:49:45.694Z,6.05
2022-10-17T12:52:16.883Z,6.40
2022-10-17T12:55:12.667Z,6.30
2022-10-17T12:57:51.504Z,6.47
2022-10-17T13:00:25.571Z,6.55
2022-10-17T13:02:55.186Z,6.05
2022-10-17T13:05:32.909Z,6.25
2022-10-17T13:08:02.315Z,5.60
2022-10-17T13:10:32.672Z,5.93
2022-10-17T13:13:13.018Z,5.72
2022-10-17T13:15:40.526Z,6.07
2022-10-17T13:18:17.492Z,5.55
2022-10-17T13:20:44.186Z,6.53
2022-10-17T13:23:24.556Z,5.75
2022-10-17T13:26:20.762Z,5.30
2022-10-17T13:29:03.391Z,5.07
2022-10-17T13:31:42.090Z,5.45
2022-10-17T13:34:20.247Z,5.60
2022-10-17T13:36:50.302Z,5.70
2022-10-17T13:39:38.553Z,5.05
2022-10-17T13:42:28.844Z,5.40
2022-10-17T13:44:57.761Z,5.40
2022-10-17T13:47:33.559Z,5.78
2022-10-17T13:50:43.728Z,5.72
2022-10-17T13:53:50.221Z,5.57
2022-10-17T13:56:28.340Z,6.03
2022-10-17T13:59:08.324Z,5.88
2022-10-17T14:01:35.302Z,5.65
2022-10-17T14:04:08.843Z,5.55
2022-10-17T14:06:49.267Z,5.72
2022-10-17T14:09:31.373Z,6.60
2022-10-17T14:12:00.818Z,5.90
2022-10-17T14:14:29.112Z,6.18
2022-10-17T14:16:57.110Z,6.60
2022-10-17T14:19:25.625Z,6.45
2022-10-17T14:22:04.356Z,6.47
2022-10-17T14:24:31.815Z,6.47
2022-10-17T14:27:01.831Z,6.50
2022-10-17T14:29:38.000Z,6.45
2022-10-17T14:32:12.387Z,6.90
2022-10-17T14:34:40.841Z,6.90
2022-10-17T14:37:12.990Z,7.80
2022-10-17T14:39:39.843Z,6.40
2022-10-17T14:42:06.645Z,7.28
2022-10-17T14:44:35.895Z,7.28
2022-10-17T14:47:38.014Z,7.28
2022-10-17T14:50:08.540Z,8.63
2022-10-17T14:52:35.746Z,7.90
2022-10-17T14:55:26.229Z,7.38
2022-10-17T14:58:05.327Z,7.32
2022-10-17T15:00:32.075Z,7.60
2022-10-17T15:02:58.793Z,8.13
2022-10-17T15:05:25.696Z,7.90
2022-10-17T15:07:52.472Z,8.35
2022-10-17T15:10:27.517Z,7.38
2022-10-17T15:12:59.151Z,7.55
2022-10-17T15:15:32.444Z,7.47
2022-10-17T15:17:59.601Z,7.00
2022-10-17T15:20:29.499Z,7.88
2022-10-17T15:23:01.732Z,6.97
2022-10-17T15:25:31.064Z,7.00
2022-10-17T15:28:09.129Z,7.30
2022-10-17T15:30:36.929Z,6.72
2022-10-17T15:33:04.123Z,6.88
2022-10-17T15:35:31.401Z,7.63
2022-10-17T15:37:58.446Z,6.57
2022-10-17T15:40:30.670Z,6.70
2022-10-17T15:42:58.103Z,7.65
2022-10-17T15:45:25.054Z,7.47
2022-10-17T15:47:54.792Z,8.63
2022-10-17T15:50:21.950Z,7.63
2022-10-17T15:52:51.138Z,8.18
2022-10-17T15:55:18.834Z,7.82
2022-10-17T15:57:47.536Z,8.35
2022-10-17T16:00:23.122Z,8.82
2022-10-17T16:02:51.044Z,8.38
2022-10-17T16:05:23.624Z,8.63
2022-10-17T16:07:53.297Z,8.73
2022-10-17T16:10:20.803Z,9.50
2022-10-17T16:12:50.151Z,8.70
2022-10-17T16:15:20.529Z,10.15
2022-10-17T16:17:47.154Z,9.70
2022-10-17T16:20:14.311Z,8.98
2022-10-17T16:22:43.111Z,10.50
2022-10-17T16:25:21.203Z,9.95
2022-10-17T16:27:49.630Z,8.98
2022-10-17T16:30:17.130Z,9.70
2022-10-17T16:32:44.134Z,8.82
2022-10-17T16:35:17.120Z,9.38
2022-10-17T16:37:43.806Z,9.13
2022-10-17T16:40:11.357Z,9.65
2022-10-17T16:42:38.013Z,8.65
2022-10-17T16:45:05.447Z,9.45
2022-10-17T16:47:32.166Z,9.45
2022-10-17T16:49:58.858Z,10.00
2022-10-17T16:52:25.700Z,11.48
2022-10-17T16:54:52.487Z,10.57
2022-10-17T16:57:19.358Z,10.10
2022-10-17T16:59:49.038Z,11.80
2022-10-17T17:02:18.906Z,12.70
2022-10-17T17:04:48.042Z,10.52
2022-10-17T17:07:14.717Z,9.50
2022-10-17T17:12:47.639Z,11.32
2022-10-17T17:15:58.369Z,10.48
2022-10-17T17:18:25.457Z,10.45
2022-10-17T17:20:52.178Z,9.60
2022-10-17T17:23:18.932Z,10.55
2022-10-17T17:25:45.722Z,10.50
2022-10-17T17:28:22.062Z,9.88
2022-10-17T17:30:48.861Z,10.48
2022-10-17T17:33:15.552Z,10.32
2022-10-17T17:35:42.213Z,10.32
2022-10-17T17:38:09.361Z,10.27
2022-10-17T17:40:36.294Z,10.60
2022-10-17T17:43:03.314Z,10.48
2022-10-17T17:45:30.272Z,10.85
2022-10-17T17:47:56.908Z,9.73
2022-10-17T17:50:23.710Z,10.80
2022-10-17T17:52:51.292Z,11.55
2022-10-17T17:55:18.062Z,11.05
2022-10-17T17:57:44.867Z,10.98
2022-10-17T18:00:12.223Z,11.32
2022-10-17T18:02:42.160Z,11.30
2022-10-17T18:05:11.021Z,11.45
2022-10-17T18:07:38.287Z,12.30
2022-10-17T18:10:07.011Z,11.25
2022-10-17T18:12:34.831Z,12.77
2022-10-17T18:15:03.290Z,12.10
2022-10-17T18:17:30.172Z,12.73
2022-10-17T18:19:56.815Z,12.27
2022-10-17T18:22:26.847Z,12.93
2022-10-17T18:24:53.640Z,13.70
2022-10-17T18:30:00.991Z,12.40
2022-10-17T18:32:31.378Z,14.52
2022-10-17T18:34:58.716Z,13.70
2022-10-17T18:37:25.532Z,13.50
2022-10-17T18:39:54.453Z,13.80
2022-10-17T18:43:04.590Z,13.18
2022-10-17T18:45:31.508Z,13.32
2022-10-17T18:47:58.477Z,13.18
2022-10-17T18:50:40.232Z,13.13
2022-10-17T18:53:15.953Z,12.77
2022-10-17T18:58:21.822Z,13.15
2022-10-17T19:00:50.417Z,12.35
2022-10-17T19:03:18.801Z,12.85
2022-10-17T19:05:46.367Z,11.68
2022-10-17T19:08:14.899Z,13.60
2022-10-17T19:10:42.984Z,13.38
2022-10-17T19:13:11.780Z,12.23
2022-10-17T19:19:13.933Z,12.38
2022-10-17T19:24:52.764Z,13.48
2022-10-17T19:27:31.485Z,13.23
2022-10-17T19:29:58.409Z,12.75
2022-10-17T19:32:25.061Z,12.43
2022-10-17T19:34:51.685Z,12.02
2022-10-17T19:37:18.495Z,12.05
2022-10-17T19:39:45.167Z,11.32
2022-10-17T19:42:11.810Z,11.38
2022-10-17T19:47:56.377Z,11.50
2022-10-17T19:51:08.970Z,11.27
2022-10-17T19:54:24.775Z,11.27
2022-10-17T19:58:18.603Z,11.30
2022-10-17T20:00:57.498Z,10.82
2022-10-17T20:04:35.589Z,11.75
2022-10-17T20:11:58.251Z,11.70
2022-10-17T20:50:56.855Z,12.23
2022-10-17T20:53:37.509Z,13.30
2022-10-17T20:56:12.506Z,12.82
2022-10-17T20:58:39.857Z,13.52
2022-10-17T21:01:13.639Z,13.82
2022-10-17T21:03:46.381Z,12.27
2022-10-17T21:06:20.645Z,11.95
2022-10-17T21:08:58.637Z,12.00
2022-10-17T21:15:37.503Z,12.80
2022-10-17T21:18:04.214Z,12.95
2022-10-17T21:20:40.603Z,12.40
2022-10-17T21:23:11.859Z,13.25
2022-10-17T21:25:57.436Z,13.90
2022-10-17T21:28:25.356Z,13.80
2022-10-17T21:31:34.082Z,13.95
2022-10-17T21:38:09.870Z,14.17
2022-10-17T22:04:33.161Z,12.95
2022-10-17T22:07:02.805Z,13.38
2022-10-17T22:09:31.724Z,12.75
2022-10-17T22:14:49.165Z,13.20
2022-10-17T22:17:19.471Z,12.90
2022-10-17T22:22:39.297Z,12.77
2022-10-17T22:25:31.517Z,13.82
2022-10-17T22:28:01.616Z,12.63
2022-10-17T22:30:32.889Z,13.05
2022-10-17T22:33:02.707Z,13.32
2022-10-17T22:35:41.933Z,13.40
2022-10-17T22:38:09.049Z,13.13
2022-10-17T22:40:36.105Z,13.88
2022-10-17T22:43:04.044Z,13.88
2022-10-17T22:45:31.218Z,15.15
2022-10-17T22:47:58.061Z,14.98
2022-10-17T22:50:41.944Z,14.93
2022-10-17T22:53:12.425Z,14.23
2022-10-17T22:55:42.042Z,14.77
2022-10-17T22:58:14.906Z,15.57
2022-10-17T23:00:46.756Z,14.40
2022-10-17T23:03:20.450Z,14.48
2022-10-17T23:05:47.942Z,14.88
2022-10-17T23:08:24.662Z,14.18
2022-10-17T23:10:54.250Z,14.38
2022-10-17T23:13:43.645Z,14.55
2022-10-17T23:16:14.958Z,13.43
2022-10-17T23:18:58.753Z,13.95
2022-10-17T23:21:50.972Z,13.65
2022-10-17T23:24:23.317Z,14.57
2022-10-17T23:27:03.812Z,14.20
2022-10-17T23:29:34.689Z,14.30
2022-10-17T23:34:43.376Z,13.60
2022-10-17T23:37:11.674Z,15.20
2022-10-17T23:39:49.461Z,14.90
2022-10-17T23:42:20.012Z,14.93
2022-10-17T23:44:50.512Z,14.63
2022-10-17T23:47:23.900Z,13.73
2022-10-17T23:49:53.621Z,14.02
2022-10-17T23:52:26.791Z,13.55
2022-10-17T23:55:05.482Z,13.90
2022-10-17T23:57:56.018Z,14.70
